Terminal Aerodrome Forecast
Issued by NWS Quad Cities IA IL

Current Version | Previous Version | Text Only | Print | Product List | Glossary On
Versions: 1 2 3 4 5 6 7 8 9 10 11 12 13 14 15 16 17
000
FTUS43 KDVN 291725
TAFMLI
TAF
KMLI 291725Z 2918/3018 VRB05KT P6SM VCTS BKN025CB OVC040
      TEMPO 2918/2921 3SM -TSRA BKN015CB OVC030
     FM292300 03007KT P6SM BKN035
     FM300600 36004KT 5SM BR SCT005 BKN015
     FM301000 36003KT 2SM BR BKN005
     FM301500 36005KT 6SM HZ SCT009 BKN020=

USA.gov is the U.S. government's official web portal to all federal, state and local government web resources and services.